createdAt,value
2023-01-17T00:04:55.491Z,75.9
2023-01-17T00:10:56.917Z,75.6
2023-01-17T00:17:11.540Z,75.8
2023-01-17T00:22:52.864Z,76.4
2023-01-17T00:28:53.245Z,75.8
2023-01-17T00:34:54.406Z,77.2
2023-01-17T00:41:01.027Z,77.2
2023-01-17T00:46:54.812Z,77.7
2023-01-17T00:52:55.457Z,77.6
2023-01-17T00:58:52.799Z,77.9
2023-01-17T01:04:54.534Z,77.8
2023-01-17T01:10:55.601Z,77.2
2023-01-17T01:16:52.467Z,76.3
2023-01-17T01:22:55.134Z,75.8
2023-01-17T01:28:52.315Z,75.6
2023-01-17T01:34:52.680Z,75.9
2023-01-17T01:40:59.748Z,75.6
2023-01-17T01:46:54.555Z,75
2023-01-17T01:52:54.006Z,74.5
2023-01-17T01:58:54.267Z,74.6
2023-01-17T02:05:03.023Z,74.4
2023-01-17T02:10:53.419Z,74.2
2023-01-17T02:16:57.897Z,74.6
2023-01-17T02:25:52.363Z,74.6
2023-01-17T02:31:52.054Z,74.5
2023-01-17T02:37:52.109Z,74.1
2023-01-17T02:43:52.202Z,73.6
2023-01-17T02:49:52.738Z,74.2
2023-01-17T03:07:52.326Z,75.1
2023-01-17T03:13:53.525Z,75.3
2023-01-17T03:19:54.522Z,74.7
2023-01-17T03:26:00.886Z,73.3
2023-01-17T03:31:56.698Z,72.8
2023-01-17T03:37:52.950Z,72.6
2023-01-17T03:43:52.722Z,71.8
2023-01-17T03:49:52.551Z,71.4
2023-01-17T03:55:52.288Z,70.7
2023-01-17T04:01:53.339Z,70.9
2023-01-17T04:07:52.348Z,70.7
2023-01-17T04:13:52.273Z,69.9
2023-01-17T04:19:52.758Z,69.6
2023-01-17T04:25:52.250Z,69.5
2023-01-17T04:31:52.848Z,69.5
2023-01-17T04:37:52.648Z,68.9
2023-01-17T04:43:52.708Z,68.9
2023-01-17T04:49:53.070Z,69.7
2023-01-17T04:55:52.414Z,69.4
2023-01-17T05:01:52.779Z,70.1
2023-01-17T05:07:52.719Z,69.7
2023-01-17T05:13:52.620Z,69.3
2023-01-17T05:19:52.666Z,69
2023-01-17T05:25:52.391Z,68.5
2023-01-17T05:31:52.323Z,69.2
2023-01-17T05:37:53.000Z,68.9
2023-01-17T05:43:52.871Z,68.6
2023-01-17T05:49:52.445Z,68.8
2023-01-17T05:55:52.351Z,68.8
2023-01-17T06:01:52.302Z,69.2
2023-01-17T06:07:53.042Z,69.4
2023-01-17T06:13:52.517Z,69.2
2023-01-17T06:19:52.743Z,69.6
2023-01-17T06:25:52.392Z,69.5
2023-01-17T06:31:52.551Z,68.3
2023-01-17T06:37:53.110Z,67.8
2023-01-17T06:43:52.611Z,67.1
2023-01-17T06:49:53.333Z,68
2023-01-17T06:55:52.611Z,67.4
2023-01-17T07:01:52.711Z,67.2
2023-01-17T07:07:53.093Z,67.8
2023-01-17T07:13:52.425Z,68.2
2023-01-17T07:19:52.553Z,67.7
2023-01-17T07:25:53.401Z,67.7
2023-01-17T07:31:53.096Z,67.9
2023-01-17T07:37:52.919Z,67.8
2023-01-17T07:43:54.332Z,68.2
2023-01-17T07:49:52.625Z,68.5
2023-01-17T07:55:53.673Z,68.9
2023-01-17T08:01:52.873Z,69.4
2023-01-17T08:07:52.793Z,69.1
2023-01-17T08:13:52.533Z,69
2023-01-17T08:19:52.901Z,68.8
2023-01-17T08:25:53.971Z,69.1
2023-01-17T08:31:52.907Z,68.9
2023-01-17T08:37:54.328Z,68
2023-01-17T08:43:52.511Z,67.7
2023-01-17T08:49:52.841Z,67.7
2023-01-17T08:55:52.477Z,66.9
2023-01-17T09:01:53.222Z,66.7
2023-01-17T09:07:52.553Z,66.1
2023-01-17T09:13:52.691Z,65.4
2023-01-17T09:19:53.038Z,64.8
2023-01-17T09:25:52.425Z,64.2
2023-01-17T09:31:52.832Z,63.9
2023-01-17T09:37:52.640Z,63.8
2023-01-17T09:43:52.471Z,63
2023-01-17T09:49:52.832Z,61.3
2023-01-17T09:55:52.427Z,61.1
2023-01-17T10:01:52.732Z,60.4
2023-01-17T10:07:52.258Z,60.2
2023-01-17T10:13:52.265Z,60.2
2023-01-17T10:19:52.238Z,59.8
2023-01-17T10:25:52.199Z,59.8
2023-01-17T10:31:52.734Z,58.7
2023-01-17T10:37:52.572Z,58.1
2023-01-17T10:43:52.405Z,57.3
2023-01-17T10:49:52.465Z,57.5
2023-01-17T10:55:52.427Z,57.5
2023-01-17T11:01:52.568Z,57
2023-01-17T11:07:52.619Z,55.4
2023-01-17T11:13:52.980Z,55.4
2023-01-17T11:19:52.935Z,55.6
2023-01-17T11:25:52.461Z,55.6
2023-01-17T11:31:52.548Z,54.1
2023-01-17T11:37:52.779Z,54.9
2023-01-17T11:43:52.839Z,55.2
2023-01-17T11:49:52.734Z,53.1
2023-01-17T11:55:52.496Z,51.4
2023-01-17T12:01:52.656Z,52.2
2023-01-17T12:07:52.302Z,52.4
2023-01-17T12:13:52.355Z,50.8
2023-01-17T12:19:52.322Z,50.8
2023-01-17T12:25:52.291Z,48.3
2023-01-17T12:31:52.324Z,47.7
2023-01-17T12:38:03.943Z,49.4
2023-01-17T12:43:53.127Z,46.9
2023-01-17T12:49:52.964Z,48.6
2023-01-17T12:55:52.545Z,48.6
2023-01-17T13:01:52.876Z,46.8
2023-01-17T13:07:52.570Z,45.8
2023-01-17T13:13:53.729Z,43.9
2023-01-17T13:19:52.526Z,42.2
2023-01-17T13:25:52.446Z,42.2
2023-01-17T13:31:52.416Z,41.8
2023-01-17T13:37:52.327Z,41.8
2023-01-17T13:43:52.435Z,41.6
2023-01-17T13:49:52.487Z,40.5
2023-01-17T13:55:52.371Z,39.9
2023-01-17T14:01:52.491Z,40.6
2023-01-17T14:07:52.443Z,40.2
2023-01-17T14:13:52.815Z,40.7
2023-01-17T14:19:52.502Z,40.4
2023-01-17T14:25:52.352Z,40.4
2023-01-17T14:31:52.488Z,41.1
2023-01-17T14:37:52.892Z,43.8
2023-01-17T14:43:52.896Z,43.7
2023-01-17T14:49:52.972Z,43.9
2023-01-17T14:55:52.514Z,44.3
2023-01-17T15:02:06.663Z,44.5
2023-01-17T15:07:52.866Z,45.5
2023-01-17T15:13:52.658Z,46.2
2023-01-17T15:19:52.623Z,46.5
2023-01-17T15:25:52.973Z,46.9
2023-01-17T15:31:53.184Z,47.6
2023-01-17T15:37:52.729Z,48.4
2023-01-17T15:43:52.498Z,49.1
2023-01-17T15:49:52.419Z,49.2
2023-01-17T15:55:52.544Z,50.7
2023-01-17T16:01:52.772Z,52.2
2023-01-17T16:07:52.360Z,52.7
2023-01-17T16:13:52.547Z,53.6
2023-01-17T16:19:52.576Z,54.7
2023-01-17T16:25:52.572Z,55.2
2023-01-17T16:31:53.039Z,56.1
2023-01-17T16:37:53.168Z,56.7
2023-01-17T16:43:52.605Z,57.9
2023-01-17T16:49:53.218Z,58.7
2023-01-17T16:55:52.858Z,58.9
2023-01-17T17:01:53.158Z,59.4
2023-01-17T17:07:53.083Z,60.5
2023-01-17T17:13:53.039Z,60.8
2023-01-17T17:19:53.423Z,60.5
2023-01-17T17:25:52.659Z,60.9
2023-01-17T17:31:52.919Z,61.7
2023-01-17T17:37:53.402Z,62.3
2023-01-17T17:43:52.841Z,62.9
2023-01-17T17:49:53.454Z,63
2023-01-17T17:55:52.712Z,63
2023-01-17T18:01:53.242Z,63.7
2023-01-17T18:07:53.449Z,63.9
2023-01-17T18:13:52.876Z,64.2
2023-01-17T18:19:52.693Z,64.8
2023-01-17T18:25:52.691Z,64.9
2023-01-17T18:31:52.891Z,65.1
2023-01-17T18:37:52.932Z,65.7
2023-01-17T18:43:52.661Z,65.9
2023-01-17T18:49:53.574Z,67.1
2023-01-17T18:55:54.908Z,67
2023-01-17T19:01:52.858Z,67
2023-01-17T19:07:53.898Z,67.1
2023-01-17T19:13:52.760Z,67.4
2023-01-17T19:19:52.868Z,67.9
2023-01-17T19:25:53.358Z,68
2023-01-17T19:31:52.990Z,68.1
2023-01-17T19:37:52.613Z,67.9
2023-01-17T19:43:52.641Z,67.6
2023-01-17T19:49:52.756Z,67.9
2023-01-17T19:55:53.362Z,67.9
2023-01-17T20:01:53.019Z,67.9
2023-01-17T20:07:53.214Z,68.4
2023-01-17T20:13:52.727Z,68.5
2023-01-17T20:19:53.192Z,68.8
2023-01-17T20:25:52.828Z,69.4
2023-01-17T20:31:52.954Z,70
2023-01-17T20:37:52.697Z,70.5
2023-01-17T20:43:52.704Z,70.4
2023-01-17T20:49:53.229Z,70.1
2023-01-17T20:55:52.698Z,69.8
2023-01-17T21:01:53.196Z,69.9
2023-01-17T21:07:52.706Z,70
2023-01-17T21:13:52.818Z,69.6
2023-01-17T21:19:52.787Z,69.6
2023-01-17T21:25:55.556Z,69.9
2023-01-17T21:31:53.089Z,70.1
2023-01-17T21:37:52.675Z,70.1
2023-01-17T21:43:52.788Z,70.3
2023-01-17T21:49:52.851Z,70.3
2023-01-17T21:55:53.059Z,70.2
2023-01-17T22:01:53.128Z,70.5
2023-01-17T22:07:52.783Z,70.6
2023-01-17T22:13:52.700Z,70.7
2023-01-17T22:19:52.771Z,70.6
2023-01-17T22:25:52.909Z,70.8
2023-01-17T22:31:54.078Z,70.9
2023-01-17T22:37:53.004Z,70.9
2023-01-17T22:43:52.901Z,71.5
2023-01-17T22:49:52.852Z,71.8
2023-01-17T22:55:52.872Z,71.7
2023-01-17T23:01:53.107Z,71.4
2023-01-17T23:07:52.991Z,71.1
2023-01-17T23:13:52.861Z,71.1
2023-01-17T23:19:52.748Z,71
2023-01-17T23:25:52.719Z,71
2023-01-17T23:31:53.112Z,70.9
2023-01-17T23:37:52.868Z,71.4
2023-01-17T23:43:52.829Z,71.6
2023-01-17T23:49:53.246Z,71.7
2023-01-17T23:55:53.015Z,71.3
